sensor_id;sensor_type;location;lat;lon;timestamp;P1;durP1;ratioP1;P2;durP2;ratioP2
35558;SDS011;21661;50.794;-1.066;2023-06-22T00:01:57;16.65;;;9.48;;
35558;SDS011;21661;50.794;-1.066;2023-06-22T00:04:23;17.98;;;10.20;;
35558;SDS011;21661;50.794;-1.066;2023-06-22T00:06:49;16.77;;;10.45;;
35558;SDS011;21661;50.794;-1.066;2023-06-22T00:09:14;18.60;;;10.57;;
35558;SDS011;21661;50.794;-1.066;2023-06-22T00:11:40;22.30;;;11.38;;
35558;SDS011;21661;50.794;-1.066;2023-06-22T00:14:06;17.13;;;11.65;;
35558;SDS011;21661;50.794;-1.066;2023-06-22T00:16:32;19.55;;;11.60;;
35558;SDS011;21661;50.794;-1.066;2023-06-22T00:18:58;17.65;;;11.20;;
35558;SDS011;21661;50.794;-1.066;2023-06-22T00:21:26;15.30;;;11.02;;
35558;SDS011;21661;50.794;-1.066;2023-06-22T00:23:51;18.75;;;11.95;;
35558;SDS011;21661;50.794;-1.066;2023-06-22T00:26:17;17.35;;;12.23;;
35558;SDS011;21661;50.794;-1.066;2023-06-22T00:28:43;21.65;;;13.43;;
35558;SDS011;21661;50.794;-1.066;2023-06-22T00:31:09;20.52;;;13.45;;
35558;SDS011;21661;50.794;-1.066;2023-06-22T00:33:35;22.88;;;13.63;;
35558;SDS011;21661;50.794;-1.066;2023-06-22T00:36:00;22.08;;;14.40;;
35558;SDS011;21661;50.794;-1.066;2023-06-22T00:38:28;27.02;;;14.63;;
35558;SDS011;21661;50.794;-1.066;2023-06-22T00:40:54;24.77;;;14.48;;
35558;SDS011;21661;50.794;-1.066;2023-06-22T00:43:19;20.40;;;12.68;;
35558;SDS011;21661;50.794;-1.066;2023-06-22T00:45:45;20.20;;;11.85;;
35558;SDS011;21661;50.794;-1.066;2023-06-22T00:48:11;19.88;;;12.05;;
35558;SDS011;21661;50.794;-1.066;2023-06-22T00:50:37;23.85;;;11.73;;
35558;SDS011;21661;50.794;-1.066;2023-06-22T00:53:07;20.77;;;12.27;;
35558;SDS011;21661;50.794;-1.066;2023-06-22T00:55:37;17.50;;;11.85;;
35558;SDS011;21661;50.794;-1.066;2023-06-22T00:58:08;18.60;;;12.75;;
35558;SDS011;21661;50.794;-1.066;2023-06-22T01:00:35;22.17;;;12.85;;
35558;SDS011;21661;50.794;-1.066;2023-06-22T01:03:02;20.95;;;14.20;;
35558;SDS011;21661;50.794;-1.066;2023-06-22T01:05:29;23.30;;;14.48;;
35558;SDS011;21661;50.794;-1.066;2023-06-22T01:10:48;22.75;;;15.00;;
35558;SDS011;21661;50.794;-1.066;2023-06-22T01:13:32;21.30;;;15.30;;
35558;SDS011;21661;50.794;-1.066;2023-06-22T01:16:23;20.38;;;15.05;;
35558;SDS011;21661;50.794;-1.066;2023-06-22T01:18:52;25.38;;;17.05;;
35558;SDS011;21661;50.794;-1.066;2023-06-22T01:21:22;22.75;;;15.40;;
35558;SDS011;21661;50.794;-1.066;2023-06-22T01:26:28;29.30;;;19.50;;
35558;SDS011;21661;50.794;-1.066;2023-06-22T01:28:57;33.22;;;19.85;;
35558;SDS011;21661;50.794;-1.066;2023-06-22T01:31:25;33.38;;;21.10;;
35558;SDS011;21661;50.794;-1.066;2023-06-22T01:33:55;29.63;;;19.52;;
35558;SDS011;21661;50.794;-1.066;2023-06-22T01:36:23;28.60;;;19.42;;
35558;SDS011;21661;50.794;-1.066;2023-06-22T01:38:50;29.38;;;18.23;;
35558;SDS011;21661;50.794;-1.066;2023-06-22T01:41:18;22.80;;;15.43;;
35558;SDS011;21661;50.794;-1.066;2023-06-22T01:43:44;22.27;;;14.63;;
35558;SDS011;21661;50.794;-1.066;2023-06-22T01:46:10;24.98;;;16.42;;
35558;SDS011;21661;50.794;-1.066;2023-06-22T01:48:37;25.63;;;17.23;;
35558;SDS011;21661;50.794;-1.066;2023-06-22T01:51:04;25.55;;;17.38;;
35558;SDS011;21661;50.794;-1.066;2023-06-22T01:53:29;25.20;;;17.23;;
35558;SDS011;21661;50.794;-1.066;2023-06-22T01:55:56;24.20;;;13.80;;
35558;SDS011;21661;50.794;-1.066;2023-06-22T01:58:23;21.65;;;14.63;;
35558;SDS011;21661;50.794;-1.066;2023-06-22T02:00:58;19.63;;;11.65;;
35558;SDS011;21661;50.794;-1.066;2023-06-22T02:03:41;23.73;;;14.25;;
35558;SDS011;21661;50.794;-1.066;2023-06-22T02:06:15;20.17;;;13.02;;
35558;SDS011;21661;50.794;-1.066;2023-06-22T02:08:47;24.88;;;14.75;;
35558;SDS011;21661;50.794;-1.066;2023-06-22T02:11:22;22.73;;;14.65;;
35558;SDS011;21661;50.794;-1.066;2023-06-22T02:13:48;24.88;;;15.43;;
35558;SDS011;21661;50.794;-1.066;2023-06-22T02:16:15;24.73;;;16.30;;
35558;SDS011;21661;50.794;-1.066;2023-06-22T02:18:49;23.05;;;15.40;;
35558;SDS011;21661;50.794;-1.066;2023-06-22T02:21:18;25.38;;;15.98;;
35558;SDS011;21661;50.794;-1.066;2023-06-22T02:23:45;23.25;;;15.55;;
35558;SDS011;21661;50.794;-1.066;2023-06-22T02:26:11;27.85;;;16.85;;
35558;SDS011;21661;50.794;-1.066;2023-06-22T02:28:37;23.52;;;16.25;;
35558;SDS011;21661;50.794;-1.066;2023-06-22T02:31:03;25.35;;;16.08;;
35558;SDS011;21661;50.794;-1.066;2023-06-22T02:33:28;23.65;;;15.55;;
35558;SDS011;21661;50.794;-1.066;2023-06-22T02:35:54;22.67;;;14.93;;
35558;SDS011;21661;50.794;-1.066;2023-06-22T02:38:19;26.00;;;15.80;;
35558;SDS011;21661;50.794;-1.066;2023-06-22T02:40:45;26.73;;;16.02;;
35558;SDS011;21661;50.794;-1.066;2023-06-22T02:43:11;23.88;;;15.70;;
35558;SDS011;21661;50.794;-1.066;2023-06-22T02:45:37;27.48;;;15.40;;
35558;SDS011;21661;50.794;-1.066;2023-06-22T02:48:03;25.05;;;14.30;;
35558;SDS011;21661;50.794;-1.066;2023-06-22T02:50:29;23.30;;;13.88;;
35558;SDS011;21661;50.794;-1.066;2023-06-22T02:52:54;24.20;;;14.77;;
35558;SDS011;21661;50.794;-1.066;2023-06-22T02:55:20;22.65;;;13.48;;
35558;SDS011;21661;50.794;-1.066;2023-06-22T02:57:46;20.33;;;12.02;;
35558;SDS011;21661;50.794;-1.066;2023-06-22T03:00:13;25.13;;;14.02;;
35558;SDS011;21661;50.794;-1.066;2023-06-22T03:02:46;20.63;;;12.93;;
35558;SDS011;21661;50.794;-1.066;2023-06-22T03:05:12;20.20;;;12.27;;
35558;SDS011;21661;50.794;-1.066;2023-06-22T03:07:42;21.40;;;12.95;;
35558;SDS011;21661;50.794;-1.066;2023-06-22T03:10:08;18.77;;;11.70;;
35558;SDS011;21661;50.794;-1.066;2023-06-22T03:12:34;18.70;;;11.98;;
35558;SDS011;21661;50.794;-1.066;2023-06-22T03:15:01;19.33;;;13.20;;
35558;SDS011;21661;50.794;-1.066;2023-06-22T03:17:26;21.88;;;13.55;;
35558;SDS011;21661;50.794;-1.066;2023-06-22T03:19:52;22.40;;;16.10;;
35558;SDS011;21661;50.794;-1.066;2023-06-22T03:22:17;25.20;;;16.38;;
35558;SDS011;21661;50.794;-1.066;2023-06-22T03:24:43;27.33;;;17.98;;
35558;SDS011;21661;50.794;-1.066;2023-06-22T03:27:08;27.75;;;18.33;;
35558;SDS011;21661;50.794;-1.066;2023-06-22T03:29:34;28.00;;;18.40;;
35558;SDS011;21661;50.794;-1.066;2023-06-22T03:32:00;25.00;;;17.83;;
35558;SDS011;21661;50.794;-1.066;2023-06-22T03:34:25;27.90;;;18.35;;
35558;SDS011;21661;50.794;-1.066;2023-06-22T03:36:51;26.13;;;17.67;;
35558;SDS011;21661;50.794;-1.066;2023-06-22T03:39:17;27.73;;;18.45;;
35558;SDS011;21661;50.794;-1.066;2023-06-22T03:41:42;29.95;;;18.92;;
35558;SDS011;21661;50.794;-1.066;2023-06-22T03:44:08;24.48;;;17.23;;
35558;SDS011;21661;50.794;-1.066;2023-06-22T03:46:37;24.65;;;15.45;;
35558;SDS011;21661;50.794;-1.066;2023-06-22T03:49:02;24.33;;;15.65;;
35558;SDS011;21661;50.794;-1.066;2023-06-22T03:51:28;23.60;;;15.85;;
35558;SDS011;21661;50.794;-1.066;2023-06-22T03:53:54;27.02;;;17.05;;
35558;SDS011;21661;50.794;-1.066;2023-06-22T03:56:19;19.13;;;14.13;;
35558;SDS011;21661;50.794;-1.066;2023-06-22T03:58:45;22.55;;;16.15;;
35558;SDS011;21661;50.794;-1.066;2023-06-22T04:01:11;27.50;;;17.15;;
35558;SDS011;21661;50.794;-1.066;2023-06-22T04:03:37;23.23;;;14.48;;
35558;SDS011;21661;50.794;-1.066;2023-06-22T04:06:03;22.23;;;15.27;;
35558;SDS011;21661;50.794;-1.066;2023-06-22T04:08:29;20.40;;;14.95;;
35558;SDS011;21661;50.794;-1.066;2023-06-22T04:10:55;24.17;;;16.13;;
35558;SDS011;21661;50.794;-1.066;2023-06-22T04:13:20;18.65;;;11.68;;
35558;SDS011;21661;50.794;-1.066;2023-06-22T04:15:46;14.10;;;9.35;;
35558;SDS011;21661;50.794;-1.066;2023-06-22T04:18:12;12.32;;;8.65;;
35558;SDS011;21661;50.794;-1.066;2023-06-22T04:20:38;13.55;;;9.82;;
35558;SDS011;21661;50.794;-1.066;2023-06-22T04:23:04;17.65;;;9.85;;
35558;SDS011;21661;50.794;-1.066;2023-06-22T04:25:29;15.13;;;8.80;;
35558;SDS011;21661;50.794;-1.066;2023-06-22T04:27:55;13.80;;;8.85;;
35558;SDS011;21661;50.794;-1.066;2023-06-22T04:30:21;16.55;;;10.20;;
35558;SDS011;21661;50.794;-1.066;2023-06-22T04:32:46;15.18;;;9.13;;
35558;SDS011;21661;50.794;-1.066;2023-06-22T04:35:21;15.48;;;9.10;;
35558;SDS011;21661;50.794;-1.066;2023-06-22T04:37:47;16.35;;;10.07;;
35558;SDS011;21661;50.794;-1.066;2023-06-22T04:40:14;15.45;;;9.90;;
35558;SDS011;21661;50.794;-1.066;2023-06-22T04:42:40;13.10;;;8.65;;
35558;SDS011;21661;50.794;-1.066;2023-06-22T04:45:16;12.02;;;7.82;;
35558;SDS011;21661;50.794;-1.066;2023-06-22T04:47:42;15.23;;;8.18;;
35558;SDS011;21661;50.794;-1.066;2023-06-22T04:50:10;16.05;;;8.52;;
35558;SDS011;21661;50.794;-1.066;2023-06-22T04:52:38;15.00;;;8.38;;
35558;SDS011;21661;50.794;-1.066;2023-06-22T04:55:04;14.73;;;8.85;;
35558;SDS011;21661;50.794;-1.066;2023-06-22T04:57:30;12.50;;;8.02;;
35558;SDS011;21661;50.794;-1.066;2023-06-22T04:59:58;14.40;;;8.18;;
35558;SDS011;21661;50.794;-1.066;2023-06-22T05:02:36;14.43;;;8.85;;
35558;SDS011;21661;50.794;-1.066;2023-06-22T05:05:02;14.48;;;8.57;;
35558;SDS011;21661;50.794;-1.066;2023-06-22T05:07:32;14.15;;;8.48;;
35558;SDS011;21661;50.794;-1.066;2023-06-22T05:09:58;11.75;;;8.20;;
35558;SDS011;21661;50.794;-1.066;2023-06-22T05:12:24;14.07;;;8.25;;
35558;SDS011;21661;50.794;-1.066;2023-06-22T05:14:49;14.55;;;8.07;;
35558;SDS011;21661;50.794;-1.066;2023-06-22T05:17:15;14.88;;;8.48;;
35558;SDS011;21661;50.794;-1.066;2023-06-22T05:19:44;12.35;;;8.65;;
35558;SDS011;21661;50.794;-1.066;2023-06-22T05:22:14;15.20;;;9.30;;
35558;SDS011;21661;50.794;-1.066;2023-06-22T05:24:40;11.93;;;7.95;;
35558;SDS011;21661;50.794;-1.066;2023-06-22T05:27:06;16.15;;;8.98;;
35558;SDS011;21661;50.794;-1.066;2023-06-22T05:29:32;13.50;;;8.35;;
35558;SDS011;21661;50.794;-1.066;2023-06-22T05:31:57;15.60;;;9.60;;
35558;SDS011;21661;50.794;-1.066;2023-06-22T05:34:23;14.00;;;7.60;;
35558;SDS011;21661;50.794;-1.066;2023-06-22T05:36:48;14.32;;;9.38;;
35558;SDS011;21661;50.794;-1.066;2023-06-22T05:39:14;13.63;;;8.35;;
35558;SDS011;21661;50.794;-1.066;2023-06-22T05:41:40;14.13;;;8.95;;
35558;SDS011;21661;50.794;-1.066;2023-06-22T05:44:06;13.93;;;8.40;;
35558;SDS011;21661;50.794;-1.066;2023-06-22T05:46:32;13.43;;;8.82;;
35558;SDS011;21661;50.794;-1.066;2023-06-22T05:48:57;14.38;;;8.90;;
35558;SDS011;21661;50.794;-1.066;2023-06-22T05:51:23;16.30;;;9.52;;
35558;SDS011;21661;50.794;-1.066;2023-06-22T05:53:48;16.33;;;9.52;;
35558;SDS011;21661;50.794;-1.066;2023-06-22T05:56:18;22.13;;;10.05;;
35558;SDS011;21661;50.794;-1.066;2023-06-22T05:58:43;14.02;;;9.25;;
35558;SDS011;21661;50.794;-1.066;2023-06-22T06:01:09;17.02;;;9.30;;
35558;SDS011;21661;50.794;-1.066;2023-06-22T06:03:34;18.42;;;9.00;;
35558;SDS011;21661;50.794;-1.066;2023-06-22T06:08:32;15.10;;;9.98;;
35558;SDS011;21661;50.794;-1.066;2023-06-22T06:10:57;17.75;;;10.15;;
35558;SDS011;21661;50.794;-1.066;2023-06-22T06:13:23;17.27;;;10.85;;
35558;SDS011;21661;50.794;-1.066;2023-06-22T06:15:48;21.13;;;11.50;;
35558;SDS011;21661;50.794;-1.066;2023-06-22T06:18:16;16.80;;;11.20;;
35558;SDS011;21661;50.794;-1.066;2023-06-22T06:20:42;21.70;;;11.18;;
35558;SDS011;21661;50.794;-1.066;2023-06-22T06:23:08;15.90;;;10.05;;
35558;SDS011;21661;50.794;-1.066;2023-06-22T06:25:33;17.30;;;10.23;;
35558;SDS011;21661;50.794;-1.066;2023-06-22T06:27:59;15.90;;;9.77;;
35558;SDS011;21661;50.794;-1.066;2023-06-22T06:30:24;16.52;;;9.32;;
35558;SDS011;21661;50.794;-1.066;2023-06-22T06:32:50;14.68;;;9.65;;
35558;SDS011;21661;50.794;-1.066;2023-06-22T06:35:16;16.52;;;9.13;;
35558;SDS011;21661;50.794;-1.066;2023-06-22T06:37:43;15.60;;;9.38;;
35558;SDS011;21661;50.794;-1.066;2023-06-22T06:40:10;15.50;;;9.38;;
35558;SDS011;21661;50.794;-1.066;2023-06-22T06:42:37;14.70;;;9.30;;
35558;SDS011;21661;50.794;-1.066;2023-06-22T06:45:05;17.42;;;9.40;;
35558;SDS011;21661;50.794;-1.066;2023-06-22T06:47:32;17.67;;;9.95;;
35558;SDS011;21661;50.794;-1.066;2023-06-22T06:49:57;17.17;;;9.85;;
35558;SDS011;21661;50.794;-1.066;2023-06-22T06:52:23;15.00;;;9.43;;
35558;SDS011;21661;50.794;-1.066;2023-06-22T06:54:48;16.33;;;9.63;;
35558;SDS011;21661;50.794;-1.066;2023-06-22T06:57:16;17.17;;;9.68;;
35558;SDS011;21661;50.794;-1.066;2023-06-22T06:59:42;17.00;;;9.38;;
35558;SDS011;21661;50.794;-1.066;2023-06-22T07:02:08;16.23;;;10.13;;
35558;SDS011;21661;50.794;-1.066;2023-06-22T07:04:33;18.90;;;10.80;;
35558;SDS011;21661;50.794;-1.066;2023-06-22T07:07:00;21.63;;;11.15;;
35558;SDS011;21661;50.794;-1.066;2023-06-22T07:09:27;20.58;;;11.02;;
35558;SDS011;21661;50.794;-1.066;2023-06-22T07:11:52;16.10;;;9.70;;
35558;SDS011;21661;50.794;-1.066;2023-06-22T07:14:18;18.55;;;9.90;;
35558;SDS011;21661;50.794;-1.066;2023-06-22T07:16:43;19.58;;;10.35;;
35558;SDS011;21661;50.794;-1.066;2023-06-22T07:19:11;19.98;;;10.02;;
35558;SDS011;21661;50.794;-1.066;2023-06-22T07:21:37;14.77;;;9.23;;
35558;SDS011;21661;50.794;-1.066;2023-06-22T07:24:04;15.88;;;9.43;;
35558;SDS011;21661;50.794;-1.066;2023-06-22T07:26:31;20.00;;;9.70;;
35558;SDS011;21661;50.794;-1.066;2023-06-22T07:28:57;14.52;;;8.90;;
35558;SDS011;21661;50.794;-1.066;2023-06-22T07:31:24;17.17;;;10.85;;
35558;SDS011;21661;50.794;-1.066;2023-06-22T07:33:50;17.05;;;10.02;;
35558;SDS011;21661;50.794;-1.066;2023-06-22T07:36:16;18.33;;;9.93;;
35558;SDS011;21661;50.794;-1.066;2023-06-22T07:38:42;16.25;;;9.23;;
35558;SDS011;21661;50.794;-1.066;2023-06-22T07:41:08;18.02;;;9.48;;
35558;SDS011;21661;50.794;-1.066;2023-06-22T07:43:34;16.90;;;9.45;;
35558;SDS011;21661;50.794;-1.066;2023-06-22T07:46:02;14.93;;;8.88;;
35558;SDS011;21661;50.794;-1.066;2023-06-22T07:48:28;18.42;;;9.48;;
35558;SDS011;21661;50.794;-1.066;2023-06-22T07:50:54;17.17;;;9.32;;
35558;SDS011;21661;50.794;-1.066;2023-06-22T07:53:20;17.90;;;9.63;;
35558;SDS011;21661;50.794;-1.066;2023-06-22T07:55:47;17.75;;;9.60;;
35558;SDS011;21661;50.794;-1.066;2023-06-22T07:58:12;18.45;;;9.73;;
35558;SDS011;21661;50.794;-1.066;2023-06-22T08:00:38;22.92;;;10.40;;
35558;SDS011;21661;50.794;-1.066;2023-06-22T08:03:05;18.73;;;9.60;;
35558;SDS011;21661;50.794;-1.066;2023-06-22T08:05:31;20.10;;;8.95;;
35558;SDS011;21661;50.794;-1.066;2023-06-22T08:07:56;17.55;;;9.27;;
35558;SDS011;21661;50.794;-1.066;2023-06-22T08:10:22;17.77;;;9.38;;
35558;SDS011;21661;50.794;-1.066;2023-06-22T08:12:48;16.27;;;9.25;;
35558;SDS011;21661;50.794;-1.066;2023-06-22T08:15:14;17.50;;;8.93;;
35558;SDS011;21661;50.794;-1.066;2023-06-22T08:17:39;13.38;;;8.98;;
35558;SDS011;21661;50.794;-1.066;2023-06-22T08:20:06;19.38;;;9.30;;
35558;SDS011;21661;50.794;-1.066;2023-06-22T08:22:36;14.65;;;9.18;;
35558;SDS011;21661;50.794;-1.066;2023-06-22T08:25:02;14.25;;;8.65;;
35558;SDS011;21661;50.794;-1.066;2023-06-22T08:27:29;14.15;;;8.88;;
35558;SDS011;21661;50.794;-1.066;2023-06-22T08:29:56;15.13;;;9.45;;
35558;SDS011;21661;50.794;-1.066;2023-06-22T08:32:26;18.65;;;8.38;;
35558;SDS011;21661;50.794;-1.066;2023-06-22T08:34:53;14.55;;;8.40;;
35558;SDS011;21661;50.794;-1.066;2023-06-22T08:37:19;16.70;;;8.40;;
35558;SDS011;21661;50.794;-1.066;2023-06-22T08:39:45;15.60;;;8.60;;
35558;SDS011;21661;50.794;-1.066;2023-06-22T08:42:11;14.23;;;8.55;;
35558;SDS011;21661;50.794;-1.066;2023-06-22T08:44:37;13.63;;;8.57;;
35558;SDS011;21661;50.794;-1.066;2023-06-22T08:47:03;10.48;;;7.22;;
35558;SDS011;21661;50.794;-1.066;2023-06-22T08:49:29;12.35;;;7.40;;
35558;SDS011;21661;50.794;-1.066;2023-06-22T08:51:54;12.70;;;7.20;;
35558;SDS011;21661;50.794;-1.066;2023-06-22T08:54:21;13.07;;;6.95;;
35558;SDS011;21661;50.794;-1.066;2023-06-22T08:56:47;13.90;;;7.53;;
35558;SDS011;21661;50.794;-1.066;2023-06-22T08:59:13;10.80;;;6.70;;
35558;SDS011;21661;50.794;-1.066;2023-06-22T09:01:40;12.73;;;7.82;;
35558;SDS011;21661;50.794;-1.066;2023-06-22T09:04:05;13.77;;;7.97;;
35558;SDS011;21661;50.794;-1.066;2023-06-22T09:06:32;13.90;;;8.65;;
35558;SDS011;21661;50.794;-1.066;2023-06-22T09:08:58;17.08;;;10.10;;
35558;SDS011;21661;50.794;-1.066;2023-06-22T09:11:27;15.43;;;9.00;;
35558;SDS011;21661;50.794;-1.066;2023-06-22T09:13:52;16.67;;;8.15;;
35558;SDS011;21661;50.794;-1.066;2023-06-22T09:16:18;15.68;;;8.40;;
35558;SDS011;21661;50.794;-1.066;2023-06-22T09:18:47;13.65;;;8.23;;
35558;SDS011;21661;50.794;-1.066;2023-06-22T09:21:13;16.02;;;8.52;;
35558;SDS011;21661;50.794;-1.066;2023-06-22T09:23:39;9.80;;;7.15;;
35558;SDS011;21661;50.794;-1.066;2023-06-22T09:26:04;11.45;;;8.23;;
35558;SDS011;21661;50.794;-1.066;2023-06-22T09:28:30;12.32;;;7.78;;
35558;SDS011;21661;50.794;-1.066;2023-06-22T09:30:56;16.02;;;8.02;;
35558;SDS011;21661;50.794;-1.066;2023-06-22T09:33:23;17.92;;;8.25;;
35558;SDS011;21661;50.794;-1.066;2023-06-22T09:35:49;13.20;;;8.23;;
35558;SDS011;21661;50.794;-1.066;2023-06-22T09:38:16;12.90;;;7.05;;
35558;SDS011;21661;50.794;-1.066;2023-06-22T09:40:41;16.88;;;8.88;;
35558;SDS011;21661;50.794;-1.066;2023-06-22T09:43:07;12.25;;;8.13;;
35558;SDS011;21661;50.794;-1.066;2023-06-22T09:45:33;14.00;;;8.13;;
35558;SDS011;21661;50.794;-1.066;2023-06-22T09:47:58;11.20;;;7.43;;
35558;SDS011;21661;50.794;-1.066;2023-06-22T09:50:24;12.88;;;8.15;;
35558;SDS011;21661;50.794;-1.066;2023-06-22T09:52:49;14.57;;;7.95;;
35558;SDS011;21661;50.794;-1.066;2023-06-22T09:55:19;14.13;;;8.15;;
35558;SDS011;21661;50.794;-1.066;2023-06-22T09:57:45;9.73;;;6.50;;
35558;SDS011;21661;50.794;-1.066;2023-06-22T10:00:11;12.68;;;7.75;;
35558;SDS011;21661;50.794;-1.066;2023-06-22T10:02:43;10.88;;;7.00;;
35558;SDS011;21661;50.794;-1.066;2023-06-22T10:05:09;16.20;;;7.25;;
35558;SDS011;21661;50.794;-1.066;2023-06-22T10:07:35;9.80;;;6.68;;
35558;SDS011;21661;50.794;-1.066;2023-06-22T10:10:05;16.60;;;7.43;;
35558;SDS011;21661;50.794;-1.066;2023-06-22T10:12:31;10.07;;;5.88;;
35558;SDS011;21661;50.794;-1.066;2023-06-22T10:14:57;7.55;;;5.43;;
35558;SDS011;21661;50.794;-1.066;2023-06-22T10:17:23;11.13;;;5.20;;
35558;SDS011;21661;50.794;-1.066;2023-06-22T10:19:48;10.63;;;6.30;;
35558;SDS011;21661;50.794;-1.066;2023-06-22T10:22:14;7.07;;;5.13;;
35558;SDS011;21661;50.794;-1.066;2023-06-22T10:24:39;8.45;;;5.35;;
35558;SDS011;21661;50.794;-1.066;2023-06-22T10:27:09;10.95;;;5.63;;
35558;SDS011;21661;50.794;-1.066;2023-06-22T10:29:36;9.93;;;5.75;;
35558;SDS011;21661;50.794;-1.066;2023-06-22T10:32:01;7.55;;;4.57;;
35558;SDS011;21661;50.794;-1.066;2023-06-22T10:34:27;12.77;;;5.78;;
35558;SDS011;21661;50.794;-1.066;2023-06-22T10:36:52;15.25;;;5.47;;
35558;SDS011;21661;50.794;-1.066;2023-06-22T10:39:18;8.18;;;4.57;;
35558;SDS011;21661;50.794;-1.066;2023-06-22T10:41:44;10.55;;;4.82;;
35558;SDS011;21661;50.794;-1.066;2023-06-22T10:44:09;8.35;;;4.30;;
35558;SDS011;21661;50.794;-1.066;2023-06-22T10:46:35;7.78;;;4.53;;
35558;SDS011;21661;50.794;-1.066;2023-06-22T10:49:01;8.48;;;4.97;;
35558;SDS011;21661;50.794;-1.066;2023-06-22T10:51:27;8.50;;;4.85;;
35558;SDS011;21661;50.794;-1.066;2023-06-22T10:53:53;7.25;;;4.32;;
35558;SDS011;21661;50.794;-1.066;2023-06-22T10:56:19;7.03;;;4.45;;
35558;SDS011;21661;50.794;-1.066;2023-06-22T10:58:44;8.50;;;4.20;;
35558;SDS011;21661;50.794;-1.066;2023-06-22T11:01:11;7.35;;;5.00;;
35558;SDS011;21661;50.794;-1.066;2023-06-22T11:03:36;6.82;;;4.20;;
35558;SDS011;21661;50.794;-1.066;2023-06-22T11:06:02;10.52;;;4.63;;
35558;SDS011;21661;50.794;-1.066;2023-06-22T11:08:28;8.30;;;4.95;;
35558;SDS011;21661;50.794;-1.066;2023-06-22T11:10:53;8.13;;;4.82;;
35558;SDS011;21661;50.794;-1.066;2023-06-22T11:13:19;7.55;;;4.45;;
35558;SDS011;21661;50.794;-1.066;2023-06-22T11:15:44;7.53;;;5.55;;
35558;SDS011;21661;50.794;-1.066;2023-06-22T11:18:10;5.93;;;4.05;;
35558;SDS011;21661;50.794;-1.066;2023-06-22T11:20:36;9.27;;;4.90;;
35558;SDS011;21661;50.794;-1.066;2023-06-22T11:23:06;9.10;;;4.95;;
35558;SDS011;21661;50.794;-1.066;2023-06-22T11:25:32;7.95;;;4.10;;
35558;SDS011;21661;50.794;-1.066;2023-06-22T11:28:01;6.93;;;4.55;;
35558;SDS011;21661;50.794;-1.066;2023-06-22T11:30:27;5.65;;;4.20;;
35558;SDS011;21661;50.794;-1.066;2023-06-22T11:32:53;7.00;;;4.45;;
35558;SDS011;21661;50.794;-1.066;2023-06-22T11:35:18;6.03;;;4.10;;
35558;SDS011;21661;50.794;-1.066;2023-06-22T11:37:44;5.30;;;3.70;;
35558;SDS011;21661;50.794;-1.066;2023-06-22T11:40:10;5.53;;;3.83;;
35558;SDS011;21661;50.794;-1.066;2023-06-22T11:42:36;8.93;;;3.65;;
35558;SDS011;21661;50.794;-1.066;2023-06-22T11:45:02;6.20;;;3.60;;
35558;SDS011;21661;50.794;-1.066;2023-06-22T11:47:29;4.80;;;3.50;;
35558;SDS011;21661;50.794;-1.066;2023-06-22T11:49:55;5.07;;;3.80;;
35558;SDS011;21661;50.794;-1.066;2023-06-22T11:52:21;6.13;;;4.20;;
35558;SDS011;21661;50.794;-1.066;2023-06-22T11:54:46;8.05;;;3.80;;
35558;SDS011;21661;50.794;-1.066;2023-06-22T11:57:12;5.40;;;3.22;;
35558;SDS011;21661;50.794;-1.066;2023-06-22T11:59:37;3.70;;;2.75;;
35558;SDS011;21661;50.794;-1.066;2023-06-22T12:02:03;5.28;;;3.28;;
35558;SDS011;21661;50.794;-1.066;2023-06-22T12:04:30;6.22;;;3.40;;
35558;SDS011;21661;50.794;-1.066;2023-06-22T12:06:56;5.47;;;3.20;;
35558;SDS011;21661;50.794;-1.066;2023-06-22T12:09:21;6.68;;;4.00;;
35558;SDS011;21661;50.794;-1.066;2023-06-22T12:11:47;4.68;;;3.60;;
35558;SDS011;21661;50.794;-1.066;2023-06-22T12:14:12;6.07;;;4.00;;
35558;SDS011;21661;50.794;-1.066;2023-06-22T12:16:38;7.32;;;4.35;;
35558;SDS011;21661;50.794;-1.066;2023-06-22T12:19:03;4.85;;;3.15;;
35558;SDS011;21661;50.794;-1.066;2023-06-22T12:21:29;4.63;;;2.83;;
35558;SDS011;21661;50.794;-1.066;2023-06-22T12:23:55;4.90;;;3.15;;
35558;SDS011;21661;50.794;-1.066;2023-06-22T12:26:21;6.20;;;3.17;;
35558;SDS011;21661;50.794;-1.066;2023-06-22T12:28:47;6.25;;;3.30;;
35558;SDS011;21661;50.794;-1.066;2023-06-22T12:31:12;5.47;;;3.17;;
35558;SDS011;21661;50.794;-1.066;2023-06-22T12:33:39;6.70;;;3.40;;
35558;SDS011;21661;50.794;-1.066;2023-06-22T12:36:04;5.32;;;2.92;;
35558;SDS011;21661;50.794;-1.066;2023-06-22T12:38:30;4.90;;;3.42;;
35558;SDS011;21661;50.794;-1.066;2023-06-22T12:40:56;5.70;;;3.28;;
35558;SDS011;21661;50.794;-1.066;2023-06-22T12:43:21;4.97;;;3.53;;
35558;SDS011;21661;50.794;-1.066;2023-06-22T12:45:47;5.22;;;3.67;;
35558;SDS011;21661;50.794;-1.066;2023-06-22T12:48:12;6.60;;;4.00;;
35558;SDS011;21661;50.794;-1.066;2023-06-22T12:50:38;5.25;;;3.42;;
35558;SDS011;21661;50.794;-1.066;2023-06-22T12:53:04;6.97;;;3.65;;
35558;SDS011;21661;50.794;-1.066;2023-06-22T12:55:31;7.57;;;3.55;;
35558;SDS011;21661;50.794;-1.066;2023-06-22T12:57:57;7.25;;;4.05;;
35558;SDS011;21661;50.794;-1.066;2023-06-22T13:00:22;5.53;;;3.72;;
35558;SDS011;21661;50.794;-1.066;2023-06-22T13:02:48;7.30;;;4.00;;
35558;SDS011;21661;50.794;-1.066;2023-06-22T13:05:14;5.30;;;3.45;;
35558;SDS011;21661;50.794;-1.066;2023-06-22T13:07:39;4.72;;;3.40;;
35558;SDS011;21661;50.794;-1.066;2023-06-22T13:10:07;7.40;;;4.50;;
35558;SDS011;21661;50.794;-1.066;2023-06-22T13:12:33;7.70;;;4.65;;
35558;SDS011;21661;50.794;-1.066;2023-06-22T13:14:58;7.95;;;3.85;;
35558;SDS011;21661;50.794;-1.066;2023-06-22T13:17:24;5.43;;;3.95;;
35558;SDS011;21661;50.794;-1.066;2023-06-22T13:19:50;7.15;;;4.70;;
35558;SDS011;21661;50.794;-1.066;2023-06-22T13:22:31;6.32;;;4.03;;
35558;SDS011;21661;50.794;-1.066;2023-06-22T13:25:06;8.77;;;5.03;;
35558;SDS011;21661;50.794;-1.066;2023-06-22T13:27:32;7.47;;;5.13;;
35558;SDS011;21661;50.794;-1.066;2023-06-22T13:29:58;7.47;;;4.60;;
35558;SDS011;21661;50.794;-1.066;2023-06-22T13:32:23;6.72;;;4.20;;
35558;SDS011;21661;50.794;-1.066;2023-06-22T13:34:49;8.95;;;4.72;;
35558;SDS011;21661;50.794;-1.066;2023-06-22T13:37:14;7.40;;;4.47;;
35558;SDS011;21661;50.794;-1.066;2023-06-22T13:39:40;7.28;;;5.20;;
35558;SDS011;21661;50.794;-1.066;2023-06-22T13:42:06;6.45;;;4.60;;
35558;SDS011;21661;50.794;-1.066;2023-06-22T13:44:32;6.60;;;4.55;;
35558;SDS011;21661;50.794;-1.066;2023-06-22T13:46:58;7.38;;;4.38;;
35558;SDS011;21661;50.794;-1.066;2023-06-22T13:49:25;9.27;;;5.13;;
35558;SDS011;21661;50.794;-1.066;2023-06-22T13:51:50;6.72;;;4.43;;
35558;SDS011;21661;50.794;-1.066;2023-06-22T13:54:16;6.38;;;4.57;;
35558;SDS011;21661;50.794;-1.066;2023-06-22T13:56:42;10.10;;;5.40;;
35558;SDS011;21661;50.794;-1.066;2023-06-22T13:59:08;7.72;;;4.95;;
35558;SDS011;21661;50.794;-1.066;2023-06-22T14:01:36;6.60;;;4.50;;
35558;SDS011;21661;50.794;-1.066;2023-06-22T14:04:04;8.43;;;4.45;;
35558;SDS011;21661;50.794;-1.066;2023-06-22T14:06:30;10.50;;;6.90;;
35558;SDS011;21661;50.794;-1.066;2023-06-22T14:08:56;7.07;;;4.70;;
35558;SDS011;21661;50.794;-1.066;2023-06-22T14:11:21;10.05;;;4.60;;
35558;SDS011;21661;50.794;-1.066;2023-06-22T14:13:47;8.13;;;4.22;;
35558;SDS011;21661;50.794;-1.066;2023-06-22T14:16:13;8.45;;;5.10;;
35558;SDS011;21661;50.794;-1.066;2023-06-22T14:18:38;6.68;;;4.75;;
35558;SDS011;21661;50.794;-1.066;2023-06-22T14:21:04;9.07;;;4.78;;
35558;SDS011;21661;50.794;-1.066;2023-06-22T14:23:29;7.03;;;4.85;;
35558;SDS011;21661;50.794;-1.066;2023-06-22T14:25:55;8.30;;;5.70;;